Terminal Aerodrome Forecast
Issued by NWS

Home | Current Version | Previous Version | Text Only | Print | Product List | Glossary On
Versions: 1 2 3 4 5 6 7 8 9 10 11 12 13 14 15 16 17 18 19 20 21 22 23 24 25 26 27 28 29 30 31
000
FTUS45 KBOU 230059 AAA
TAFAPA
TAF AMD
KAPA 230059Z 2301/2324 05008KT P6SM FEW100 SCT150
     FM230300 29007KT P6SM SCT100 BKN150
     FM230600 25007KT P6SM SCT100 BKN120
     FM231000 30010KT P6SM SCT070 BKN100
     FM231700 26014G22KT P6SM VCSH SCT040 BKN080
     FM232200 34016G26KT 5SM -SHSN BKN025 OVC040=

USA.gov is the U.S. government's official web portal to all federal, state and local government web resources and services.